Saturday, December 15, 2018, 10:37 PM EST
Back to Local

KMPV, Knapp State Airport

Location: Barre, VT, United States Lat: 44.2
Local Time: 10:37 PM EST ( 3:37 GMT) Lon: -72.567
Time Zone: US/Eastern Elev: 1164 ft

Show me the last for .
Show Decoded

2018-12-15 21:51 METAR KMPV 160251Z AUTO 00000KT 10SM CLR M04/M04 A3029 RMK AO2 SLP274 T10391044
                 51005 =
2018-12-15 20:51 METAR KMPV 160151Z AUTO 00000KT 10SM CLR M03/M03 A3029 RMK AO2 SLP273 T10281033
                 =
2018-12-15 19:51 METAR KMPV 160051Z AUTO 00000KT 10SM CLR M02/M03 A3028 RMK AO2 SLP270 T10221033
                 =
2018-12-15 18:51 METAR KMPV 152351Z AUTO 36004KT 10SM CLR 00/M03 A3028 RMK AO2 SLP266 T00001028
                 10039 21006 53009 =
2018-12-15 17:51 METAR KMPV 152251Z AUTO 35004KT 10SM CLR 01/M03 A3027 RMK AO2 SLP262 T00061033 =
2018-12-15 16:51 METAR KMPV 152151Z AUTO 00000KT 10SM CLR 01/M03 A3026 RMK AO2 SLP260 T00061033 =
2018-12-15 15:51 METAR KMPV 152051Z AUTO 34003KT 10SM CLR 02/M03 A3025 RMK AO2 SLP255 T00221028
                 51015 =
2018-12-15 14:51 METAR KMPV 151951Z AUTO 32005KT 10SM FEW034 03/M03 A3023 RMK AO2 SLP249
                 T00281028 =
2018-12-15 13:51 METAR KMPV 151851Z AUTO 31005KT 10SM BKN032 03/M03 A3022 RMK AO2 SLP245
                 T00331028 =
2018-12-15 12:51 METAR KMPV 151751Z AUTO 31006KT 10SM CLR 03/M02 A3021 RMK AO2 SLP240 T00331022
                 10039 20022 58005 =
2018-12-15 12:38 METAR KMPV 151738Z AUTO 30009KT 10SM SCT028 03/M02 A3021 RMK AO2 T00331022 =
2018-12-15 12:03 METAR KMPV 151703Z AUTO 32006KT 10SM BKN029 03/M01 A3021 RMK AO2 T00331011 =
2018-12-15 11:51 METAR KMPV 151651Z AUTO VRB06KT 10SM SCT028 03/M01 A3021 RMK AO2 SLP241
                 T00281011 =
2018-12-15 11:35 METAR KMPV 151635Z AUTO 30007KT 10SM SCT028 03/M01 A3021 RMK AO2 T00281011 =
2018-12-15 10:51 METAR KMPV 151551Z AUTO 34004KT 10SM SCT021 BKN029 02/M01 A3022 RMK AO2 SLP247
                 T00221006 =
2018-12-15 09:51 METAR KMPV 151451Z AUTO 31012KT 10SM SCT025 BKN030 03/01 A3022 RMK AO2 SLP246
                 T00330006 53017 =
2018-12-15 08:51 METAR KMPV 151351Z AUTO 34011KT 10SM BKN028 04/01 A3021 RMK AO2 SLP241 T00390011
                 =
2018-12-15 08:30 METAR KMPV 151330Z AUTO 32008KT 10SM BKN025 03/02 A3020 RMK AO2 T00330017 =
2018-12-15 07:51 METAR KMPV 151251Z AUTO 30005KT 10SM FEW028 03/02 A3018 RMK AO2 SLP232 T00330022
                 =
2018-12-15 06:51 METAR KMPV 151151Z AUTO 31004KT 10SM BKN034 03/02 A3017 RMK AO2 SLP229 T00330017
                 10067 20022 53020 =
2018-12-15 06:37 METAR KMPV 151137Z AUTO 32003KT 10SM BKN031 OVC040 03/02 A3017 RMK AO2 T00280017
                 =
2018-12-15 05:51 METAR KMPV 151051Z AUTO 05003KT 10SM BKN029 OVC043 04/02 A3015 RMK AO2 SLP222
                 T00440022 =
2018-12-15 05:24 METAR KMPV 151024Z AUTO 07005KT 10SM BKN028 OVC046 03/02 A3013 RMK AO2 T00330017
                 =
2018-12-15 04:51 METAR KMPV 150951Z AUTO 11003KT 10SM SCT028 BKN046 03/02 A3012 RMK AO2 SLP213
                 T00280017 =
2018-12-15 03:51 METAR KMPV 150851Z AUTO 23005KT 10SM BKN038 OVC046 06/02 A3011 RMK AO2 SLP208
                 T00560022 50000 =
2018-12-15 02:51 METAR KMPV 150751Z AUTO 20006KT 10SM OVC040 06/02 A3011 RMK AO2 SLP207 T00560022
                 =
2018-12-15 01:51 METAR KMPV 150651Z AUTO 18010KT 10SM OVC039 05/02 A3011 RMK AO2 SLP209 T00500022
                 =
2018-12-15 00:51 METAR KMPV 150551Z AUTO 22007KT 10SM FEW050 BKN080 06/02 A3011 RMK AO2 SLP208
                 I6000 T00560022 10056 20017 56017 =
2018-12-14 23:51 METAR KMPV 150451Z AUTO 23008KT 10SM FEW085 05/02 A3012 RMK AO2 SLP213 T00500022
                 400561044 =
2018-12-14 22:51 METAR KMPV 150351Z AUTO 19004KT 10SM FEW046 OVC100 03/01 A3014 RMK AO2 SLP219
                 T00280011 =

Support USWX by starting your Amazon purchase here.